createdAt,value
2017-01-09T00:00:55.652Z,0
2017-01-09T00:01:55.711Z,0
2017-01-09T00:02:55.779Z,0
2017-01-09T00:03:55.830Z,0
2017-01-09T00:04:55.879Z,0
2017-01-09T00:05:55.936Z,0
2017-01-09T00:06:55.998Z,0
2017-01-09T00:07:56.040Z,0
2017-01-09T00:08:56.113Z,0
2017-01-09T00:09:56.151Z,0
2017-01-09T00:10:56.205Z,0
2017-01-09T00:11:56.264Z,0
2017-01-09T00:12:56.357Z,0
2017-01-09T00:13:56.395Z,0
2017-01-09T00:14:56.447Z,0
2017-01-09T00:15:56.507Z,0
2017-01-09T00:16:56.548Z,0
2017-01-09T00:17:56.602Z,0
2017-01-09T00:18:56.663Z,0
2017-01-09T00:19:56.711Z,0
2017-01-09T00:20:56.771Z,0
2017-01-09T00:21:56.827Z,0
2017-01-09T00:22:56.873Z,0
2017-01-09T00:23:56.942Z,0
2017-01-09T00:24:56.986Z,0
2017-01-09T00:25:57.046Z,0
2017-01-09T00:26:57.105Z,0
2017-01-09T00:27:57.165Z,0
2017-01-09T00:28:57.220Z,0
2017-01-09T00:29:57.289Z,0
2017-01-09T00:30:57.325Z,0
2017-01-09T00:31:57.380Z,0
2017-01-09T00:32:57.437Z,0
2017-01-09T00:33:57.497Z,0
2017-01-09T00:34:57.549Z,0
2017-01-09T00:35:57.604Z,0
2017-01-09T00:36:57.663Z,0
2017-01-09T00:37:57.719Z,0
2017-01-09T00:38:57.775Z,0
2017-01-09T00:39:57.823Z,0
2017-01-09T00:40:57.883Z,0
2017-01-09T00:41:57.938Z,0
2017-01-09T00:42:57.989Z,0
2017-01-09T00:43:58.039Z,0
2017-01-09T00:44:58.104Z,0
2017-01-09T00:45:58.150Z,0
2017-01-09T00:46:58.212Z,0
2017-01-09T00:47:58.262Z,0
2017-01-09T00:48:58.327Z,0
2017-01-09T00:49:58.383Z,0
2017-01-09T00:50:58.432Z,0
2017-01-09T00:51:58.482Z,0
2017-01-09T00:52:58.542Z,0
2017-01-09T00:53:58.600Z,0
2017-01-09T00:54:58.652Z,0
2017-01-09T00:55:58.711Z,0
2017-01-09T00:56:58.762Z,0
2017-01-09T00:57:58.823Z,0
2017-01-09T00:58:58.867Z,0
2017-01-09T00:59:58.934Z,0
2017-01-09T01:00:58.991Z,0
2017-01-09T01:01:59.047Z,0
2017-01-09T01:02:59.101Z,0
2017-01-09T01:03:59.153Z,0
2017-01-09T01:04:59.211Z,0
2017-01-09T01:05:59.259Z,0
2017-01-09T01:06:59.324Z,0
2017-01-09T01:07:59.383Z,0
2017-01-09T01:08:59.430Z,0
2017-01-09T01:09:59.479Z,0
2017-01-09T01:10:59.546Z,0
2017-01-09T01:11:59.595Z,0
2017-01-09T01:12:59.657Z,0
2017-01-09T01:13:59.708Z,0
2017-01-09T01:14:59.765Z,0
2017-01-09T01:15:59.816Z,0
2017-01-09T01:16:59.875Z,0
2017-01-09T01:17:59.927Z,0
2017-01-09T01:18:59.995Z,0
2017-01-09T01:20:00.036Z,0
2017-01-09T01:21:00.090Z,0
2017-01-09T01:22:00.142Z,0
2017-01-09T01:23:00.206Z,0
2017-01-09T01:24:00.252Z,0
2017-01-09T01:25:00.316Z,0
2017-01-09T01:26:00.363Z,0
2017-01-09T01:27:00.429Z,0
2017-01-09T01:28:00.481Z,0
2017-01-09T01:29:00.538Z,0
2017-01-09T01:30:00.598Z,0
2017-01-09T01:31:01.037Z,0
2017-01-09T01:32:00.693Z,0
2017-01-09T01:33:00.756Z,0
2017-01-09T01:34:00.810Z,0
2017-01-09T01:35:00.863Z,0
2017-01-09T01:36:00.926Z,0
2017-01-09T01:37:00.973Z,0
2017-01-09T01:38:01.036Z,0
2017-01-09T01:39:01.090Z,0
2017-01-09T01:40:01.144Z,0
2017-01-09T01:41:01.593Z,0
2017-01-09T01:42:01.249Z,0
2017-01-09T01:43:01.310Z,0
2017-01-09T01:44:01.357Z,0
2017-01-09T01:45:01.413Z,0
2017-01-09T01:46:01.485Z,0
2017-01-09T01:47:01.545Z,0
2017-01-09T01:48:01.586Z,0
2017-01-09T01:49:01.643Z,0
2017-01-09T01:50:01.710Z,0
2017-01-09T01:51:01.752Z,0
2017-01-09T01:52:01.817Z,0
2017-01-09T01:53:01.867Z,0
2017-01-09T01:54:01.922Z,0
2017-01-09T01:55:01.985Z,0
2017-01-09T01:56:02.037Z,0
2017-01-09T01:57:02.088Z,0
2017-01-09T01:58:02.148Z,0
2017-01-09T01:59:02.198Z,0
2017-01-09T02:00:02.257Z,0
2017-01-09T02:01:02.311Z,0
2017-01-09T02:02:02.759Z,0
2017-01-09T02:03:02.424Z,0
2017-01-09T02:04:02.487Z,0
2017-01-09T02:05:02.533Z,0
2017-01-09T02:06:02.603Z,0
2017-01-09T02:07:02.637Z,0
2017-01-09T02:08:02.700Z,0
2017-01-09T02:09:02.755Z,0
2017-01-09T02:10:02.816Z,0
2017-01-09T02:11:02.871Z,0
2017-01-09T02:12:02.924Z,0
2017-01-09T02:13:02.978Z,0
2017-01-09T02:14:03.034Z,0
2017-01-09T02:15:03.092Z,0
2017-01-09T02:16:03.148Z,0
2017-01-09T02:17:03.193Z,0
2017-01-09T02:18:03.256Z,0
2017-01-09T02:19:03.312Z,0
2017-01-09T02:20:03.364Z,0
2017-01-09T02:21:03.430Z,0
2017-01-09T02:22:03.474Z,0
2017-01-09T02:23:03.731Z,0
2017-01-09T02:24:03.584Z,0
2017-01-09T02:25:03.648Z,0
2017-01-09T02:26:04.095Z,0
2017-01-09T02:27:03.749Z,0
2017-01-09T02:28:03.823Z,0
2017-01-09T02:29:03.873Z,0
2017-01-09T02:30:03.919Z,0
2017-01-09T02:31:03.983Z,0
2017-01-09T02:32:04.044Z,0
2017-01-09T02:33:04.096Z,0
2017-01-09T02:34:04.142Z,0
2017-01-09T02:35:04.210Z,0
2017-01-09T02:36:04.263Z,0
2017-01-09T02:37:04.308Z,0
2017-01-09T02:38:04.373Z,0
2017-01-09T02:39:04.429Z,0
2017-01-09T02:40:04.488Z,0
2017-01-09T02:41:04.538Z,0
2017-01-09T02:42:04.594Z,0
2017-01-09T02:43:04.655Z,0
2017-01-09T02:44:04.704Z,0
2017-01-09T02:45:04.769Z,0
2017-01-09T02:46:04.809Z,0
2017-01-09T02:47:04.858Z,0
2017-01-09T02:48:04.917Z,0
2017-01-09T02:49:04.978Z,0
2017-01-09T02:50:05.043Z,0
2017-01-09T02:51:05.086Z,0
2017-01-09T02:52:05.366Z,0
2017-01-09T02:53:05.203Z,0
2017-01-09T02:54:05.266Z,0
2017-01-09T02:55:05.504Z,0
2017-01-09T02:56:05.367Z,0
2017-01-09T02:57:05.414Z,0
2017-01-09T02:58:05.862Z,0
2017-01-09T02:59:05.528Z,0
2017-01-09T03:00:05.988Z,0
2017-01-09T03:01:05.650Z,0
2017-01-09T03:02:05.700Z,0
2017-01-09T03:03:05.757Z,0
2017-01-09T03:04:05.819Z,0
2017-01-09T03:05:05.870Z,0
2017-01-09T03:06:05.919Z,0
2017-01-09T03:07:05.982Z,0
2017-01-09T03:08:06.035Z,0
2017-01-09T03:09:06.086Z,0
2017-01-09T03:10:06.142Z,0
2017-01-09T03:11:06.198Z,0
2017-01-09T03:12:06.247Z,0
2017-01-09T03:13:06.315Z,0
2017-01-09T03:14:06.363Z,0
2017-01-09T03:15:06.424Z,0
2017-01-09T03:16:06.473Z,0
2017-01-09T03:17:06.713Z,0
2017-01-09T03:18:06.588Z,0
2017-01-09T03:19:06.653Z,0
2017-01-09T03:20:06.691Z,0
2017-01-09T03:21:06.758Z,0
2017-01-09T03:22:06.808Z,0
2017-01-09T03:23:06.872Z,0
2017-01-09T03:24:06.934Z,0
2017-01-09T03:25:06.988Z,0
2017-01-09T03:26:07.029Z,0
2017-01-09T03:27:07.091Z,0
2017-01-09T03:28:07.150Z,0
2017-01-09T03:29:07.203Z,0
2017-01-09T03:30:07.252Z,0
2017-01-09T03:31:07.322Z,0
2017-01-09T03:32:07.383Z,0
2017-01-09T03:33:07.426Z,0
2017-01-09T03:34:07.474Z,0
2017-01-09T03:35:07.529Z,0
2017-01-09T03:36:07.594Z,0
2017-01-09T03:37:07.642Z,0
2017-01-09T03:38:07.702Z,0
2017-01-09T03:39:07.755Z,0
2017-01-09T03:40:07.822Z,0
2017-01-09T03:41:07.863Z,0
2017-01-09T03:42:07.934Z,0
2017-01-09T03:43:08.177Z,0
2017-01-09T03:44:08.246Z,0
2017-01-09T03:45:08.297Z,0
2017-01-09T03:46:08.149Z,0
2017-01-09T03:47:08.197Z,0
2017-01-09T03:48:08.263Z,0
2017-01-09T03:49:08.311Z,0
2017-01-09T03:50:08.358Z,0
2017-01-09T03:51:08.412Z,0
2017-01-09T03:52:08.474Z,0
2017-01-09T03:53:08.530Z,0
2017-01-09T03:54:08.577Z,0
2017-01-09T03:55:08.639Z,0
2017-01-09T03:56:08.693Z,0
2017-01-09T03:57:08.755Z,0
2017-01-09T03:58:08.800Z,0
2017-01-09T03:59:08.871Z,0
2017-01-09T04:00:08.916Z,0
2017-01-09T04:01:08.968Z,0
2017-01-09T04:02:09.025Z,0
2017-01-09T04:03:09.077Z,0
2017-01-09T04:04:09.130Z,0
2017-01-09T04:05:09.206Z,0
2017-01-09T04:06:09.253Z,0
2017-01-09T04:07:09.314Z,0
2017-01-09T04:08:09.348Z,0
2017-01-09T04:09:09.405Z,0
2017-01-09T04:10:09.464Z,0
2017-01-09T04:11:09.518Z,0
2017-01-09T04:12:09.569Z,0
2017-01-09T04:13:09.630Z,0
2017-01-09T04:14:09.908Z,0
2017-01-09T04:15:09.747Z,0
2017-01-09T04:16:09.801Z,0
2017-01-09T04:17:09.870Z,0
2017-01-09T04:18:09.904Z,0
2017-01-09T04:19:09.967Z,0
2017-01-09T04:20:10.025Z,0
2017-01-09T04:21:10.077Z,0
2017-01-09T04:22:10.127Z,0
2017-01-09T04:23:10.182Z,0
2017-01-09T04:24:10.249Z,0
2017-01-09T04:25:10.302Z,0
2017-01-09T04:26:10.359Z,0
2017-01-09T04:27:10.409Z,0
2017-01-09T04:28:10.471Z,0
2017-01-09T04:29:10.516Z,0
2017-01-09T04:30:10.585Z,0
2017-01-09T04:31:10.641Z,0
2017-01-09T04:32:10.688Z,0
2017-01-09T04:33:10.748Z,0
2017-01-09T04:34:10.806Z,0
2017-01-09T04:35:10.851Z,0
2017-01-09T04:36:11.121Z,0
2017-01-09T04:37:11.170Z,0
2017-01-09T04:38:11.237Z,0
2017-01-09T04:39:11.074Z,0
2017-01-09T04:40:11.143Z,0
2017-01-09T04:41:11.189Z,0
2017-01-09T04:42:11.259Z,0
2017-01-09T04:43:11.302Z,0
2017-01-09T04:44:11.366Z,0
2017-01-09T04:45:11.405Z,0
2017-01-09T04:46:11.473Z,0
2017-01-09T04:47:11.544Z,0
2017-01-09T04:48:11.575Z,0
2017-01-09T04:49:11.634Z,0
2017-01-09T04:50:11.701Z,0
2017-01-09T04:51:11.735Z,0
2017-01-09T04:52:11.804Z,0
2017-01-09T04:53:11.866Z,0
2017-01-09T04:54:11.918Z,0
2017-01-09T04:55:11.965Z,0
2017-01-09T04:56:12.030Z,0
2017-01-09T04:57:12.079Z,0
2017-01-09T04:58:12.234Z,0
2017-01-09T04:59:12.218Z,0
2017-01-09T05:00:12.244Z,0
2017-01-09T05:01:12.300Z,0
2017-01-09T05:02:12.350Z,0
2017-01-09T05:03:12.411Z,0
2017-01-09T05:04:12.470Z,0
2017-01-09T05:05:12.520Z,0
2017-01-09T05:06:12.586Z,0
2017-01-09T05:07:12.632Z,0
2017-01-09T05:08:12.682Z,0
2017-01-09T05:09:12.739Z,0
2017-01-09T05:10:12.796Z,0
2017-01-09T05:11:12.852Z,0
2017-01-09T05:12:12.900Z,0
2017-01-09T05:13:12.998Z,0
2017-01-09T05:14:13.015Z,0
2017-01-09T05:15:13.067Z,0
2017-01-09T05:16:13.130Z,0
2017-01-09T05:17:13.173Z,0
2017-01-09T05:18:13.229Z,0
2017-01-09T05:19:13.298Z,0
2017-01-09T05:20:13.338Z,0
2017-01-09T05:21:13.396Z,0
2017-01-09T05:22:13.462Z,0
2017-01-09T05:23:13.505Z,0
2017-01-09T05:24:13.564Z,0
2017-01-09T05:25:13.621Z,0
2017-01-09T05:26:13.675Z,0
2017-01-09T05:27:13.731Z,0
2017-01-09T05:28:13.790Z,0
2017-01-09T05:29:13.840Z,0
2017-01-09T05:30:13.895Z,0
2017-01-09T05:31:13.960Z,0
2017-01-09T05:32:14.010Z,0
2017-01-09T05:33:14.061Z,0
2017-01-09T05:34:14.127Z,0
2017-01-09T05:35:14.174Z,0
2017-01-09T05:36:14.247Z,0
2017-01-09T05:37:14.290Z,0
2017-01-09T05:38:14.347Z,0
2017-01-09T05:39:14.398Z,0
2017-01-09T05:40:14.459Z,0
2017-01-09T05:41:14.513Z,0
2017-01-09T05:42:14.565Z,0
2017-01-09T05:43:14.611Z,0
2017-01-09T05:44:14.666Z,0
2017-01-09T05:45:14.725Z,0
2017-01-09T05:46:14.782Z,0
2017-01-09T05:47:14.831Z,0
2017-01-09T05:48:14.902Z,0
2017-01-09T05:49:14.963Z,0
2017-01-09T05:50:15.002Z,0
2017-01-09T05:51:15.067Z,0
2017-01-09T05:52:15.116Z,0
2017-01-09T05:53:15.171Z,0
2017-01-09T05:54:15.223Z,0
2017-01-09T05:55:15.286Z,0
2017-01-09T05:56:15.338Z,0
2017-01-09T05:57:15.396Z,0
2017-01-09T05:58:15.451Z,0
2017-01-09T05:59:15.507Z,0
2017-01-09T06:00:15.947Z,0
2017-01-09T06:01:15.616Z,0
2017-01-09T06:02:15.662Z,0
2017-01-09T06:03:15.731Z,0
2017-01-09T06:04:15.783Z,0
2017-01-09T06:05:15.823Z,0
2017-01-09T06:06:15.901Z,0
2017-01-09T06:07:15.945Z,0
2017-01-09T06:08:16.004Z,0
2017-01-09T06:09:16.058Z,0
2017-01-09T06:10:16.113Z,0
2017-01-09T06:11:16.167Z,0
2017-01-09T06:12:16.228Z,0
2017-01-09T06:13:16.278Z,0
2017-01-09T06:14:16.321Z,0
2017-01-09T06:15:16.394Z,0
2017-01-09T06:16:16.440Z,0
2017-01-09T06:17:16.490Z,0
2017-01-09T06:18:16.558Z,0
2017-01-09T06:19:16.610Z,0
2017-01-09T06:20:16.660Z,0
2017-01-09T06:21:16.709Z,0
2017-01-09T06:22:16.769Z,0
2017-01-09T06:23:16.822Z,0
2017-01-09T06:24:16.911Z,0
2017-01-09T06:25:16.939Z,0
2017-01-09T06:26:16.990Z,0
2017-01-09T06:27:17.047Z,0
2017-01-09T06:28:17.101Z,0
2017-01-09T06:29:17.149Z,0
2017-01-09T06:30:17.231Z,0
2017-01-09T06:31:17.258Z,0
2017-01-09T06:32:17.327Z,0
2017-01-09T06:33:17.399Z,0
2017-01-09T06:34:17.430Z,0
2017-01-09T06:35:17.474Z,0
2017-01-09T06:36:17.537Z,0
2017-01-09T06:37:17.615Z,0
2017-01-09T06:38:17.645Z,0
2017-01-09T06:39:17.694Z,0
2017-01-09T06:40:17.753Z,0
2017-01-09T06:41:17.804Z,0
2017-01-09T06:42:17.871Z,0
2017-01-09T06:43:17.918Z,0
2017-01-09T06:44:17.973Z,0
2017-01-09T06:45:18.018Z,0
2017-01-09T06:46:18.075Z,0
2017-01-09T06:47:18.136Z,0
2017-01-09T06:48:18.193Z,4
2017-01-09T06:49:18.255Z,4
2017-01-09T06:50:18.299Z,4
2017-01-09T06:51:18.359Z,4
2017-01-09T06:52:18.420Z,0
2017-01-09T06:53:18.467Z,4
2017-01-09T06:54:18.527Z,4
2017-01-09T06:55:18.583Z,4
2017-01-09T06:56:18.631Z,4
2017-01-09T06:57:18.690Z,4
2017-01-09T06:58:18.743Z,8
2017-01-09T06:59:18.808Z,8
2017-01-09T07:00:18.855Z,8
2017-01-09T07:01:18.902Z,4
2017-01-09T07:02:18.956Z,8
2017-01-09T07:03:19.017Z,8
2017-01-09T07:04:19.076Z,12
2017-01-09T07:05:19.130Z,12
2017-01-09T07:06:19.190Z,16
2017-01-09T07:07:19.250Z,16
2017-01-09T07:08:19.289Z,16
2017-01-09T07:09:19.377Z,20
2017-01-09T07:10:19.402Z,24
2017-01-09T07:11:19.472Z,28
2017-01-09T07:12:19.526Z,28
2017-01-09T07:13:19.584Z,36
2017-01-09T07:14:19.628Z,40
2017-01-09T07:15:19.679Z,44
2017-01-09T07:16:19.736Z,48
2017-01-09T07:17:19.794Z,52
2017-01-09T07:18:19.850Z,56
2017-01-09T07:19:19.918Z,60
2017-01-09T07:20:19.971Z,64
2017-01-09T07:21:20.025Z,72
2017-01-09T07:22:20.081Z,72
2017-01-09T07:23:20.137Z,76
2017-01-09T07:24:20.185Z,80
2017-01-09T07:25:20.250Z,84
2017-01-09T07:26:20.302Z,76
2017-01-09T07:27:20.354Z,76
2017-01-09T07:28:20.416Z,96
2017-01-09T07:29:20.468Z,104
2017-01-09T07:30:20.526Z,104
2017-01-09T07:31:20.577Z,100
2017-01-09T07:32:20.637Z,76
2017-01-09T07:33:20.691Z,104
2017-01-09T07:34:20.747Z,84
2017-01-09T07:35:20.800Z,108
2017-01-09T07:36:20.860Z,120
2017-01-09T07:37:20.911Z,116
2017-01-09T07:38:20.964Z,84
2017-01-09T07:39:21.014Z,92
2017-01-09T07:40:21.067Z,76
2017-01-09T07:41:21.134Z,100
2017-01-09T07:42:21.188Z,60
2017-01-09T07:43:21.271Z,52
2017-01-09T07:44:21.308Z,48
2017-01-09T07:45:21.350Z,56
2017-01-09T07:46:21.558Z,88
2017-01-09T07:47:21.464Z,76
2017-01-09T07:48:21.527Z,72
2017-01-09T07:49:21.585Z,108
2017-01-09T07:50:21.634Z,84
2017-01-09T07:51:21.690Z,64
2017-01-09T07:52:21.749Z,64
2017-01-09T07:53:21.798Z,64
2017-01-09T07:54:21.853Z,68
2017-01-09T07:55:21.923Z,76
2017-01-09T07:56:21.974Z,76
2017-01-09T07:57:22.020Z,80
2017-01-09T07:58:22.079Z,88
2017-01-09T07:59:22.134Z,72
2017-01-09T08:00:22.193Z,72
2017-01-09T08:01:22.247Z,68
2017-01-09T08:02:22.296Z,64
2017-01-09T08:03:22.365Z,68
2017-01-09T08:04:22.417Z,64
2017-01-09T08:05:22.465Z,72
2017-01-09T08:06:22.524Z,76
2017-01-09T08:07:22.576Z,80
2017-01-09T08:08:22.646Z,84
2017-01-09T08:09:22.699Z,84
2017-01-09T08:10:22.757Z,76
2017-01-09T08:11:22.807Z,72
2017-01-09T08:12:22.905Z,76
2017-01-09T08:13:22.925Z,84
2017-01-09T08:14:22.972Z,92
2017-01-09T08:15:23.040Z,100
2017-01-09T08:16:23.095Z,120
2017-01-09T08:17:23.140Z,136
2017-01-09T08:18:23.200Z,160
2017-01-09T08:19:23.270Z,180
2017-01-09T08:20:23.313Z,224
2017-01-09T08:21:23.360Z,208
2017-01-09T08:22:23.427Z,260
2017-01-09T08:23:23.474Z,304
2017-01-09T08:24:23.535Z,256
2017-01-09T08:25:23.589Z,260
2017-01-09T08:26:23.648Z,296
2017-01-09T08:27:23.698Z,332
2017-01-09T08:28:23.753Z,284
2017-01-09T08:29:23.810Z,352
2017-01-09T08:30:23.865Z,300
2017-01-09T08:31:23.917Z,308
2017-01-09T08:32:23.977Z,304
2017-01-09T08:33:24.039Z,408
2017-01-09T08:34:24.091Z,464
2017-01-09T08:35:24.148Z,476
2017-01-09T08:36:24.220Z,384
2017-01-09T08:37:24.253Z,380
2017-01-09T08:38:24.311Z,472
2017-01-09T08:39:24.373Z,476
2017-01-09T08:40:24.417Z,480
2017-01-09T08:41:24.475Z,484
2017-01-09T08:42:24.537Z,480
2017-01-09T08:43:24.587Z,488
2017-01-09T08:44:24.649Z,496
2017-01-09T08:45:24.703Z,500
2017-01-09T08:46:24.760Z,504
2017-01-09T08:47:24.818Z,512
2017-01-09T08:48:24.866Z,524
2017-01-09T08:49:24.927Z,532
2017-01-09T08:50:24.985Z,532
2017-01-09T08:51:25.046Z,540
2017-01-09T08:52:25.099Z,544
2017-01-09T08:53:25.149Z,552
2017-01-09T08:54:25.217Z,560
2017-01-09T08:55:25.273Z,564
2017-01-09T08:56:25.323Z,564
2017-01-09T08:57:25.378Z,568
2017-01-09T08:58:25.442Z,572
2017-01-09T08:59:25.486Z,576
2017-01-09T09:00:25.537Z,580
2017-01-09T09:01:25.602Z,584
2017-01-09T09:02:25.657Z,588
2017-01-09T09:03:25.715Z,588
2017-01-09T09:04:25.771Z,592
2017-01-09T09:05:25.837Z,596
2017-01-09T09:06:25.891Z,604
2017-01-09T09:07:25.934Z,608
2017-01-09T09:08:26.002Z,612
2017-01-09T09:09:26.074Z,616
2017-01-09T09:10:26.110Z,620
2017-01-09T09:11:26.170Z,628
2017-01-09T09:12:26.217Z,636
2017-01-09T09:13:26.286Z,640
2017-01-09T09:14:26.331Z,644
2017-01-09T09:15:26.389Z,652
2017-01-09T09:16:26.448Z,656
2017-01-09T09:17:26.892Z,660
2017-01-09T09:18:26.565Z,668
2017-01-09T09:19:26.615Z,672
2017-01-09T09:20:26.677Z,672
2017-01-09T09:21:26.741Z,676
2017-01-09T09:22:26.780Z,684
2017-01-09T09:23:26.854Z,684
2017-01-09T09:24:26.900Z,692
2017-01-09T09:25:26.956Z,696
2017-01-09T09:26:27.018Z,700
2017-01-09T09:27:27.080Z,704
2017-01-09T09:28:27.127Z,708
2017-01-09T09:29:27.187Z,712
2017-01-09T09:30:27.244Z,716
2017-01-09T09:31:27.305Z,720
2017-01-09T09:32:27.361Z,720
2017-01-09T09:33:27.407Z,728
2017-01-09T09:34:27.471Z,732
2017-01-09T09:35:27.529Z,736
2017-01-09T09:36:27.575Z,740
2017-01-09T09:37:27.647Z,744
2017-01-09T09:38:27.722Z,752
2017-01-09T09:39:27.759Z,752
2017-01-09T09:40:27.804Z,756
2017-01-09T09:41:27.868Z,764
2017-01-09T09:42:27.927Z,768
2017-01-09T09:43:27.982Z,772
2017-01-09T09:44:28.044Z,772
2017-01-09T09:45:28.084Z,780
2017-01-09T09:46:28.151Z,780
2017-01-09T09:47:28.208Z,780
2017-01-09T09:48:28.270Z,784
2017-01-09T09:49:28.329Z,792
2017-01-09T09:50:28.389Z,788
2017-01-09T09:51:28.436Z,796
2017-01-09T09:52:28.489Z,804
2017-01-09T09:53:28.556Z,804
2017-01-09T09:54:28.604Z,808
2017-01-09T09:55:28.651Z,816
2017-01-09T09:56:28.723Z,820
2017-01-09T09:57:28.773Z,820
2017-01-09T09:58:28.824Z,828
2017-01-09T09:59:28.898Z,828
2017-01-09T10:00:28.952Z,836
2017-01-09T10:01:28.997Z,836
2017-01-09T10:02:29.059Z,840
2017-01-09T10:03:29.121Z,844
2017-01-09T10:04:29.163Z,856
2017-01-09T10:05:29.228Z,860
2017-01-09T10:06:29.298Z,864
2017-01-09T10:07:29.345Z,864
2017-01-09T10:08:29.406Z,872
2017-01-09T10:09:29.459Z,872
2017-01-09T10:10:29.516Z,880
2017-01-09T10:11:29.569Z,884
2017-01-09T10:12:29.628Z,888
2017-01-09T10:13:29.682Z,892
2017-01-09T10:14:29.743Z,900
2017-01-09T10:15:29.792Z,904
2017-01-09T10:16:29.859Z,908
2017-01-09T10:17:29.914Z,912
2017-01-09T10:18:29.978Z,920
2017-01-09T10:19:30.035Z,924
2017-01-09T10:20:30.087Z,928
2017-01-09T10:21:30.152Z,932
2017-01-09T10:22:30.199Z,940
2017-01-09T10:23:30.256Z,944
2017-01-09T10:24:30.312Z,952
2017-01-09T10:25:30.364Z,960
2017-01-09T10:26:30.433Z,960
2017-01-09T10:27:30.482Z,964
2017-01-09T10:28:30.550Z,968
2017-01-09T10:29:30.649Z,976
2017-01-09T10:30:30.661Z,980
2017-01-09T10:31:30.723Z,984
2017-01-09T10:32:30.770Z,988
2017-01-09T10:33:30.824Z,992
2017-01-09T10:34:30.879Z,1000
2017-01-09T10:35:30.952Z,1000
2017-01-09T10:36:31.008Z,1004
2017-01-09T10:37:31.056Z,1008
2017-01-09T10:38:31.109Z,1016
2017-01-09T10:39:31.174Z,1020
2017-01-09T10:40:31.225Z,1024
2017-01-09T10:41:31.282Z,1028
2017-01-09T10:42:31.352Z,1032
2017-01-09T10:43:31.401Z,1040
2017-01-09T10:44:31.453Z,1044
2017-01-09T10:45:31.517Z,1048
2017-01-09T10:46:31.567Z,1048
2017-01-09T10:47:31.628Z,1056
2017-01-09T10:48:31.695Z,1056
2017-01-09T10:49:31.748Z,1064
2017-01-09T10:50:31.811Z,1064
2017-01-09T10:51:31.855Z,1068
2017-01-09T10:52:31.919Z,1072
2017-01-09T10:53:31.982Z,1080
2017-01-09T10:54:32.047Z,1080
2017-01-09T10:55:32.102Z,1084
2017-01-09T10:56:32.157Z,1092
2017-01-09T10:57:32.209Z,1096
2017-01-09T10:58:32.267Z,1100
2017-01-09T10:59:32.322Z,1104
2017-01-09T11:00:32.389Z,1108
2017-01-09T11:01:32.439Z,1112
2017-01-09T11:02:32.499Z,1116
2017-01-09T11:03:32.563Z,1124
2017-01-09T11:04:32.611Z,1124
2017-01-09T11:05:32.677Z,1132
2017-01-09T11:06:32.725Z,1136
2017-01-09T11:07:32.789Z,1140
2017-01-09T11:08:32.851Z,1144
2017-01-09T11:09:33.282Z,1148
2017-01-09T11:10:33.113Z,1152
2017-01-09T11:11:33.012Z,1156
2017-01-09T11:12:33.077Z,1160
2017-01-09T11:13:33.127Z,1164
2017-01-09T11:14:33.197Z,1168
2017-01-09T11:15:33.248Z,1172
2017-01-09T11:16:33.298Z,1176
2017-01-09T11:17:33.362Z,1180
2017-01-09T11:18:33.424Z,1180
2017-01-09T11:19:33.480Z,1188
2017-01-09T11:20:33.547Z,1188
2017-01-09T11:21:33.588Z,1192
2017-01-09T11:22:33.647Z,1196
2017-01-09T11:23:33.707Z,1200
2017-01-09T11:24:33.760Z,1200
2017-01-09T11:25:33.835Z,1208
2017-01-09T11:26:33.876Z,1208
2017-01-09T11:27:33.931Z,1212
2017-01-09T11:28:33.993Z,1212
2017-01-09T11:29:34.053Z,1220
2017-01-09T11:30:34.119Z,1228
2017-01-09T11:31:34.161Z,1236
2017-01-09T11:32:34.216Z,1236
2017-01-09T11:33:34.266Z,1240
2017-01-09T11:34:34.332Z,1244
2017-01-09T11:35:34.388Z,1248
2017-01-09T11:36:34.441Z,1252
2017-01-09T11:37:34.502Z,1256
2017-01-09T11:38:34.551Z,1264
2017-01-09T11:39:34.625Z,1268
2017-01-09T11:40:34.675Z,1272
2017-01-09T11:41:34.727Z,1276
2017-01-09T11:42:34.793Z,1280
2017-01-09T11:43:34.843Z,1292
2017-01-09T11:44:34.934Z,1296
2017-01-09T11:45:34.959Z,1300
2017-01-09T11:46:35.015Z,1312
2017-01-09T11:47:35.071Z,1316
2017-01-09T11:48:35.517Z,1324
2017-01-09T11:49:35.186Z,1328
2017-01-09T11:50:35.275Z,1336
2017-01-09T11:51:35.321Z,1340
2017-01-09T11:52:35.354Z,1340
2017-01-09T11:53:35.410Z,1352
2017-01-09T11:54:35.473Z,1352
2017-01-09T11:55:35.520Z,1356
2017-01-09T11:56:35.621Z,1360
2017-01-09T11:57:35.628Z,1360
2017-01-09T11:58:35.702Z,1360
2017-01-09T11:59:35.745Z,1364
2017-01-09T12:00:35.805Z,1368
2017-01-09T12:01:35.866Z,1368
2017-01-09T12:02:35.921Z,1372
2017-01-09T12:03:35.976Z,1372
2017-01-09T12:04:36.034Z,1376
2017-01-09T12:05:36.088Z,1376
2017-01-09T12:06:36.350Z,1376
2017-01-09T12:07:36.208Z,1376
2017-01-09T12:08:36.256Z,1380
2017-01-09T12:09:36.316Z,1380
2017-01-09T12:10:36.373Z,1380
2017-01-09T12:11:36.428Z,1380
2017-01-09T12:12:36.487Z,1380
2017-01-09T12:13:36.546Z,1380
2017-01-09T12:14:36.602Z,1380
2017-01-09T12:15:36.657Z,1384
2017-01-09T12:16:36.709Z,1380
2017-01-09T12:17:36.770Z,1380
2017-01-09T12:18:36.824Z,1384
2017-01-09T12:19:36.883Z,1384
2017-01-09T12:20:36.934Z,1380
2017-01-09T12:21:36.994Z,1380
2017-01-09T12:22:37.044Z,1380
2017-01-09T12:23:37.111Z,1380
2017-01-09T12:24:37.160Z,1380
2017-01-09T12:25:37.220Z,1380
2017-01-09T12:26:37.268Z,1376
2017-01-09T12:27:37.337Z,1376
2017-01-09T12:28:37.379Z,1376
2017-01-09T12:29:37.447Z,1376
2017-01-09T12:30:37.502Z,1376
2017-01-09T12:31:37.556Z,1376
2017-01-09T12:32:37.616Z,1376
2017-01-09T12:33:37.666Z,1372
2017-01-09T12:34:37.751Z,1376
2017-01-09T12:35:37.784Z,1376
2017-01-09T12:36:37.870Z,1376
2017-01-09T12:37:37.886Z,1376
2017-01-09T12:38:37.951Z,1380
2017-01-09T12:39:38.003Z,1372
2017-01-09T12:40:38.071Z,1376
2017-01-09T12:41:38.136Z,1372
2017-01-09T12:42:38.190Z,1376
2017-01-09T12:43:38.233Z,1380
2017-01-09T12:44:38.289Z,1376
2017-01-09T12:45:38.342Z,1376
2017-01-09T12:46:38.402Z,1376
2017-01-09T12:47:38.452Z,1376
2017-01-09T12:48:38.518Z,1376
2017-01-09T12:49:38.571Z,1368
2017-01-09T12:50:38.628Z,1368
2017-01-09T12:51:38.684Z,1364
2017-01-09T12:52:38.744Z,1360
2017-01-09T12:53:38.798Z,1356
2017-01-09T12:54:38.864Z,1352
2017-01-09T12:55:38.912Z,1348
2017-01-09T12:56:38.963Z,1344
2017-01-09T12:57:39.035Z,1344
2017-01-09T12:58:39.080Z,1340
2017-01-09T12:59:39.140Z,1336
2017-01-09T13:00:39.584Z,1336
2017-01-09T13:01:39.245Z,1332
2017-01-09T13:02:39.303Z,1328
2017-01-09T13:03:39.363Z,1320
2017-01-09T13:04:39.411Z,1300
2017-01-09T13:05:39.490Z,1308
2017-01-09T13:06:39.530Z,1300
2017-01-09T13:07:39.643Z,1292
2017-01-09T13:08:39.644Z,1284
2017-01-09T13:09:39.697Z,1276
2017-01-09T13:10:39.760Z,1272
2017-01-09T13:11:39.822Z,1268
2017-01-09T13:12:40.262Z,1260
2017-01-09T13:13:39.930Z,1248
2017-01-09T13:14:39.975Z,1248
2017-01-09T13:15:40.035Z,1240
2017-01-09T13:16:40.092Z,1236
2017-01-09T13:17:40.156Z,1228
2017-01-09T13:18:40.214Z,1216
2017-01-09T13:19:40.261Z,1208
2017-01-09T13:20:40.318Z,1200
2017-01-09T13:21:40.377Z,1196
2017-01-09T13:22:40.444Z,1188
2017-01-09T13:23:40.495Z,1188
2017-01-09T13:24:40.559Z,1172
2017-01-09T13:25:40.614Z,1156
2017-01-09T13:26:40.666Z,1152
2017-01-09T13:27:40.728Z,1140
2017-01-09T13:28:40.773Z,1132
2017-01-09T13:29:40.841Z,1124
2017-01-09T13:30:40.898Z,1120
2017-01-09T13:31:40.939Z,1108
2017-01-09T13:32:40.994Z,1104
2017-01-09T13:33:41.049Z,1092
2017-01-09T13:34:41.133Z,1084
2017-01-09T13:35:41.162Z,1072
2017-01-09T13:36:41.227Z,1064
2017-01-09T13:37:41.285Z,1056
2017-01-09T13:38:41.345Z,1048
2017-01-09T13:39:41.403Z,1040
2017-01-09T13:40:41.458Z,1024
2017-01-09T13:41:41.902Z,1012
2017-01-09T13:42:41.568Z,1004
2017-01-09T13:43:41.669Z,1004
2017-01-09T13:44:41.680Z,992
2017-01-09T13:45:41.730Z,984
2017-01-09T13:46:41.791Z,980
2017-01-09T13:47:41.849Z,964
2017-01-09T13:48:41.910Z,960
2017-01-09T13:49:41.958Z,944
2017-01-09T13:50:42.027Z,936
2017-01-09T13:51:42.069Z,932
2017-01-09T13:52:42.141Z,928
2017-01-09T13:53:42.192Z,928
2017-01-09T13:54:42.238Z,924
2017-01-09T13:55:42.301Z,920
2017-01-09T13:56:42.367Z,904
2017-01-09T13:57:42.415Z,904
2017-01-09T13:58:42.537Z,892
2017-01-09T13:59:42.529Z,888
2017-01-09T14:00:42.587Z,876
2017-01-09T14:01:42.647Z,864
2017-01-09T14:02:42.710Z,864
2017-01-09T14:03:42.763Z,852
2017-01-09T14:04:42.822Z,844
2017-01-09T14:05:42.878Z,836
2017-01-09T14:06:42.940Z,828
2017-01-09T14:07:42.988Z,816
2017-01-09T14:08:43.063Z,796
2017-01-09T14:09:43.111Z,772
2017-01-09T14:10:43.159Z,792
2017-01-09T14:11:43.228Z,780